Senanur Cebi — V7DB8 — position and weather

sailwx.info

Track history (hours):
 
Tides and Currents Weather Stations Pressure Air Temp Water Temp Dewpoint Dewpoint Depression Visibility Wind Speed Wind Dir Waves Ship Positions

Senanur Cebi

Last reported at 2017-Sep-05 13:46 UTC. Time now 2017-Dec-12 02:58 UTC.
Position N 37°22' E 025°55'.
Warning: this ship's position is months out of date.

Length 188 m; draft 13.6 m.

Type: Cargo ship. MMSI: 538007575.

Date/timePositionNaut miles runAvg speedWind from/ knotsBaromVisibWave heightAir tempDewpointWater temp
2017-Sep-05 13:46N 37°22' E 025°55'310.8
2017-Sep-05 13:30N 37°24' E 025°52'610.9
2017-Sep-05 12:57N 37°28' E 025°47'611.5
2017-Sep-05 12:28N 37°33' E 025°44'611.9
2017-Sep-05 12:00N 37°39' E 025°42'612.2
2017-Sep-05 11:30N 37°44' E 025°40'611.9
2017-Sep-05 11:00N 37°50' E 025°37'276 7.5
2017-Sep-03 22:22N 41°30' E 029°14'0 0.2
2017-Sep-03 21:58N 41°30' E 029°14'0 0.3
2017-Sep-03 20:55N 41°30' E 029°14'1 0.3
2017-Sep-03 18:43N 41°30' E 029°15'7 2.0
2017-Sep-03 15:17N 41°23' E 029°14'0 0.2
2017-Sep-03 14:32N 41°23' E 029°14'0 0.3
2017-Sep-03 13:56N 41°23' E 029°14'0 0.3
2017-Sep-03 12:41N 41°24' E 029°14'0 0.2
2017-Sep-03 12:26N 41°24' E 029°14'0 0.2
2017-Sep-03 11:59N 41°24' E 029°14'0 0.1
2017-Sep-03 11:23N 41°24' E 029°14'0 0.1
2017-Sep-03 10:59N 41°24' E 029°14'0 0.4
2017-Sep-03 10:29N 41°24' E 029°14'0 0.8
2017-Sep-03 09:59N 41°24' E 029°13'4 6.3
2017-Sep-03 09:21N 41°26' E 029°18'411.9
2017-Sep-03 09:00N 41°28' E 029°23'611.9
2017-Sep-03 08:30N 41°31' E 029°30'1410.9
2017-Sep-03 07:12N 41°38' E 029°46'311.7
2017-Sep-03 06:54N 41°40' E 029°50'511.9
2017-Sep-03 06:30N 41°43' E 029°55'612.0
2017-Sep-03 06:00N 41°46' E 030°02'611.9
2017-Sep-03 05:28N 41°50' E 030°09'7812.1
2017-Sep-02 23:00N 42°33' E 031°37'612.2
2017-Sep-02 22:30N 42°36' E 031°44'612.1
2017-Sep-02 22:00N 42°39' E 031°51'812.0
2017-Sep-02 21:19N 42°44' E 032°01'412.0
2017-Sep-02 21:00N 42°46' E 032°05'612.0
2017-Sep-02 20:30N 42°49' E 032°12'612.0
2017-Sep-02 19:59N 42°53' E 032°19'2911.8
2017-Sep-02 17:31N 43°09' E 032°52'311.9
2017-Sep-02 17:18N 43°10' E 032°55'411.9
2017-Sep-02 16:59N 43°12' E 032°59'612.0
2017-Sep-02 16:30N 43°15' E 033°06'612.0
2017-Sep-02 16:00N 43°18' E 033°13'612.0
2017-Sep-02 15:30N 43°22' E 033°20'2611.9
2017-Sep-02 13:17N 43°36' E 033°50'14910.0
2017-Sep-01 22:27N 45°09' E 036°33'0 0.1
2017-Sep-01 20:21N 45°08' E 036°33'0 0.1
2017-Sep-01 19:54N 45°08' E 036°33'0 0.0
2017-Sep-01 11:12N 45°08' E 036°33'0 0.0
2017-Sep-01 10:21N 45°08' E 036°33'0 0.0
2017-Aug-31 14:24N 45°08' E 036°33'0 0.0
2017-Aug-31 00:27N 45°08' E 036°33'  
2017-Aug-28 11:21N 45°08' E 036°33'0 0.0
2017-Aug-28 10:42N 45°08' E 036°33'0 0.0
2017-Aug-28 10:15N 45°08' E 036°33'0 0.0
2017-Aug-28 10:00N 45°08' E 036°33'0 0.0
2017-Aug-28 09:21N 45°08' E 036°33'0 0.0
2017-Aug-28 08:57N 45°08' E 036°33'0 0.0
2017-Aug-28 08:27N 45°08' E 036°33'0 0.0
2017-Aug-28 07:54N 45°08' E 036°33'0 0.1
2017-Aug-28 07:30N 45°08' E 036°33'0 0.0
2017-Aug-28 06:33N 45°08' E 036°33'0 0.0
2017-Aug-28 04:54N 45°08' E 036°33'0 0.0
2017-Aug-27 12:39N 45°08' E 036°33'0 0.0
2017-Aug-27 12:15N 45°08' E 036°33'0 0.0
2017-Aug-27 11:59N 45°08' E 036°33'0 0.0
2017-Aug-27 10:11N 45°08' E 036°33'  
Track history (hours):
 
Tides and Currents Weather Stations Pressure Air Temp Water Temp Dewpoint Dewpoint Depression Visibility Wind Speed Wind Dir Waves Ship Positions

Senanur Cebi

Last reported at 2017-Sep-05 13:46 UTC. Time now 2017-Dec-12 02:58 UTC.
Position N 37°22' E 025°55'.
Warning: this ship's position is months out of date.

Length 188 m; draft 13.6 m.

Type: Cargo ship. MMSI: 538007575.

Date/timePositionNaut miles runAvg speedWind from/ knotsBaromVisibWave heightAir tempDewpointWater temp
2017-Sep-05 13:46N 37°22' E 025°55'310.8
2017-Sep-05 13:30N 37°24' E 025°52'610.9
2017-Sep-05 12:57N 37°28' E 025°47'611.5
2017-Sep-05 12:28N 37°33' E 025°44'611.9
2017-Sep-05 12:00N 37°39' E 025°42'612.2
2017-Sep-05 11:30N 37°44' E 025°40'611.9
2017-Sep-05 11:00N 37°50' E 025°37'276 7.5
2017-Sep-03 22:22N 41°30' E 029°14'0 0.2
2017-Sep-03 21:58N 41°30' E 029°14'0 0.3
2017-Sep-03 20:55N 41°30' E 029°14'1 0.3
2017-Sep-03 18:43N 41°30' E 029°15'7 2.0
2017-Sep-03 15:17N 41°23' E 029°14'0 0.2
2017-Sep-03 14:32N 41°23' E 029°14'0 0.3
2017-Sep-03 13:56N 41°23' E 029°14'0 0.3
2017-Sep-03 12:41N 41°24' E 029°14'0 0.2
2017-Sep-03 12:26N 41°24' E 029°14'0 0.2
2017-Sep-03 11:59N 41°24' E 029°14'0 0.1
2017-Sep-03 11:23N 41°24' E 029°14'0 0.1
2017-Sep-03 10:59N 41°24' E 029°14'0 0.4
2017-Sep-03 10:29N 41°24' E 029°14'0 0.8
2017-Sep-03 09:59N 41°24' E 029°13'4 6.3
2017-Sep-03 09:21N 41°26' E 029°18'411.9
2017-Sep-03 09:00N 41°28' E 029°23'611.9
2017-Sep-03 08:30N 41°31' E 029°30'1410.9
2017-Sep-03 07:12N 41°38' E 029°46'311.7
2017-Sep-03 06:54N 41°40' E 029°50'511.9
2017-Sep-03 06:30N 41°43' E 029°55'612.0
2017-Sep-03 06:00N 41°46' E 030°02'611.9
2017-Sep-03 05:28N 41°50' E 030°09'7812.1
2017-Sep-02 23:00N 42°33' E 031°37'612.2
2017-Sep-02 22:30N 42°36' E 031°44'612.1
2017-Sep-02 22:00N 42°39' E 031°51'812.0
2017-Sep-02 21:19N 42°44' E 032°01'412.0
2017-Sep-02 21:00N 42°46' E 032°05'612.0
2017-Sep-02 20:30N 42°49' E 032°12'612.0
2017-Sep-02 19:59N 42°53' E 032°19'2911.8
2017-Sep-02 17:31N 43°09' E 032°52'311.9
2017-Sep-02 17:18N 43°10' E 032°55'411.9
2017-Sep-02 16:59N 43°12' E 032°59'612.0
2017-Sep-02 16:30N 43°15' E 033°06'612.0
2017-Sep-02 16:00N 43°18' E 033°13'612.0
2017-Sep-02 15:30N 43°22' E 033°20'2611.9
2017-Sep-02 13:17N 43°36' E 033°50'14910.0
2017-Sep-01 22:27N 45°09' E 036°33'0 0.1
2017-Sep-01 20:21N 45°08' E 036°33'0 0.1
2017-Sep-01 19:54N 45°08' E 036°33'0 0.0
2017-Sep-01 11:12N 45°08' E 036°33'0 0.0
2017-Sep-01 10:21N 45°08' E 036°33'0 0.0
2017-Aug-31 14:24N 45°08' E 036°33'0 0.0
2017-Aug-31 00:27N 45°08' E 036°33'  
2017-Aug-28 11:21N 45°08' E 036°33'0 0.0
2017-Aug-28 10:42N 45°08' E 036°33'0 0.0
2017-Aug-28 10:15N 45°08' E 036°33'0 0.0
2017-Aug-28 10:00N 45°08' E 036°33'0 0.0
2017-Aug-28 09:21N 45°08' E 036°33'0 0.0
2017-Aug-28 08:57N 45°08' E 036°33'0 0.0
2017-Aug-28 08:27N 45°08' E 036°33'0 0.0
2017-Aug-28 07:54N 45°08' E 036°33'0 0.1
2017-Aug-28 07:30N 45°08' E 036°33'0 0.0
2017-Aug-28 06:33N 45°08' E 036°33'0 0.0
2017-Aug-28 04:54N 45°08' E 036°33'0 0.0
2017-Aug-27 12:39N 45°08' E 036°33'0 0.0
2017-Aug-27 12:15N 45°08' E 036°33'0 0.0
2017-Aug-27 11:59N 45°08' E 036°33'0 0.0
2017-Aug-27 10:11N 45°08' E 036°33'  

Dump ship's entire track history